Bath, Kentucky
Current Conditions -  °F | °C
As of 5:55 AM on Sunday 23 Nov 2014 (Local Time) from KPBX Reporting Station
Overcast Overcast  
Wind Chill: 52°   Ceiling: 10000
Heat Index: 52°   Visibility: 10mi
Dew Point: 35°   Wind: 9mph
Humidity: 53%   Direction: 140°SE
Pressure: 30.08"   Gusts: NA
Location:  37.3185°N, 82.8717°W
Report Text: KPBX 231055Z AUTO 14008KT 10SM OVC100 11/02 A3008 RMK AO2 T01090016
Loading
Personal Weather Stations






























Interactive Weather Map New forecast layout! Learn more

10-Day Weather Forecast

Advertisements
Track Severe Weather on mobile